sensor_id;sensor_type;location;lat;lon;timestamp;temperature;humidity
19232;DHT22;9750;48.730;10.294;2022-07-22T00:01:43;20.30;91.20
19232;DHT22;9750;48.730;10.294;2022-07-22T00:04:12;20.20;91.60
19232;DHT22;9750;48.730;10.294;2022-07-22T00:06:39;20.20;91.60
19232;DHT22;9750;48.730;10.294;2022-07-22T00:09:07;20.20;91.90
19232;DHT22;9750;48.730;10.294;2022-07-22T00:11:34;20.20;92.10
19232;DHT22;9750;48.730;10.294;2022-07-22T00:14:02;20.10;91.90
19232;DHT22;9750;48.730;10.294;2022-07-22T00:16:29;20.10;92.00
19232;DHT22;9750;48.730;10.294;2022-07-22T00:18:56;20.00;92.20
19232;DHT22;9750;48.730;10.294;2022-07-22T00:21:25;19.90;92.20
19232;DHT22;9750;48.730;10.294;2022-07-22T00:23:52;19.90;92.30
19232;DHT22;9750;48.730;10.294;2022-07-22T00:26:20;19.90;92.60
19232;DHT22;9750;48.730;10.294;2022-07-22T00:28:47;19.90;92.80
19232;DHT22;9750;48.730;10.294;2022-07-22T00:31:14;19.80;93.20
19232;DHT22;9750;48.730;10.294;2022-07-22T00:33:42;19.80;92.70
19232;DHT22;9750;48.730;10.294;2022-07-22T00:36:09;19.80;93.00
19232;DHT22;9750;48.730;10.294;2022-07-22T00:38:38;19.80;93.00
19232;DHT22;9750;48.730;10.294;2022-07-22T00:41:06;19.70;92.60
19232;DHT22;9750;48.730;10.294;2022-07-22T00:43:53;19.70;92.70
19232;DHT22;9750;48.730;10.294;2022-07-22T00:46:20;19.70;92.80
19232;DHT22;9750;48.730;10.294;2022-07-22T00:48:48;19.60;93.10
19232;DHT22;9750;48.730;10.294;2022-07-22T00:51:16;19.60;92.90
19232;DHT22;9750;48.730;10.294;2022-07-22T00:53:46;19.50;93.20
19232;DHT22;9750;48.730;10.294;2022-07-22T00:56:14;19.50;93.30
19232;DHT22;9750;48.730;10.294;2022-07-22T00:58:42;19.50;92.90
19232;DHT22;9750;48.730;10.294;2022-07-22T01:01:10;19.50;93.30
19232;DHT22;9750;48.730;10.294;2022-07-22T01:03:37;19.40;93.20
19232;DHT22;9750;48.730;10.294;2022-07-22T01:06:05;19.40;93.40
19232;DHT22;9750;48.730;10.294;2022-07-22T01:08:33;19.40;93.60
19232;DHT22;9750;48.730;10.294;2022-07-22T01:11:09;19.30;93.90
19232;DHT22;9750;48.730;10.294;2022-07-22T01:13:36;19.30;94.10
19232;DHT22;9750;48.730;10.294;2022-07-22T01:16:05;19.30;94.30
19232;DHT22;9750;48.730;10.294;2022-07-22T01:18:32;19.30;94.30
19232;DHT22;9750;48.730;10.294;2022-07-22T01:21:01;19.30;94.20
19232;DHT22;9750;48.730;10.294;2022-07-22T01:23:28;19.30;94.20
19232;DHT22;9750;48.730;10.294;2022-07-22T01:25:56;19.30;94.20
19232;DHT22;9750;48.730;10.294;2022-07-22T01:28:24;19.20;94.30
19232;DHT22;9750;48.730;10.294;2022-07-22T01:30:51;19.20;94.50
19232;DHT22;9750;48.730;10.294;2022-07-22T01:33:19;19.20;94.70
19232;DHT22;9750;48.730;10.294;2022-07-22T01:35:47;19.20;94.80
19232;DHT22;9750;48.730;10.294;2022-07-22T01:38:16;19.20;95.00
19232;DHT22;9750;48.730;10.294;2022-07-22T01:40:44;19.10;94.60
19232;DHT22;9750;48.730;10.294;2022-07-22T01:43:12;19.20;94.60
19232;DHT22;9750;48.730;10.294;2022-07-22T01:45:43;19.10;94.60
19232;DHT22;9750;48.730;10.294;2022-07-22T01:48:11;19.10;94.70
19232;DHT22;9750;48.730;10.294;2022-07-22T01:50:39;19.10;94.90
19232;DHT22;9750;48.730;10.294;2022-07-22T01:53:43;19.00;94.60
19232;DHT22;9750;48.730;10.294;2022-07-22T01:56:11;19.00;94.30
19232;DHT22;9750;48.730;10.294;2022-07-22T01:58:38;19.00;94.70
19232;DHT22;9750;48.730;10.294;2022-07-22T02:01:05;18.90;94.80
19232;DHT22;9750;48.730;10.294;2022-07-22T02:03:33;18.90;94.90
19232;DHT22;9750;48.730;10.294;2022-07-22T02:06:00;18.90;95.10
19232;DHT22;9750;48.730;10.294;2022-07-22T02:08:28;18.90;95.20
19232;DHT22;9750;48.730;10.294;2022-07-22T02:10:57;18.90;95.20
19232;DHT22;9750;48.730;10.294;2022-07-22T02:13:24;18.90;95.70
19232;DHT22;9750;48.730;10.294;2022-07-22T02:15:51;18.80;95.30
19232;DHT22;9750;48.730;10.294;2022-07-22T02:18:19;18.80;95.40
19232;DHT22;9750;48.730;10.294;2022-07-22T02:20:46;18.80;95.70
19232;DHT22;9750;48.730;10.294;2022-07-22T02:23:13;18.80;95.70
19232;DHT22;9750;48.730;10.294;2022-07-22T02:25:41;18.80;95.60
19232;DHT22;9750;48.730;10.294;2022-07-22T02:28:10;18.70;95.70
19232;DHT22;9750;48.730;10.294;2022-07-22T02:30:38;18.80;95.80
19232;DHT22;9750;48.730;10.294;2022-07-22T02:33:05;18.70;95.50
19232;DHT22;9750;48.730;10.294;2022-07-22T02:35:33;18.70;96.00
19232;DHT22;9750;48.730;10.294;2022-07-22T02:38:00;18.70;95.60
19232;DHT22;9750;48.730;10.294;2022-07-22T02:40:28;18.60;95.70
19232;DHT22;9750;48.730;10.294;2022-07-22T02:42:55;18.60;96.00
19232;DHT22;9750;48.730;10.294;2022-07-22T02:45:24;18.60;96.50
19232;DHT22;9750;48.730;10.294;2022-07-22T02:47:53;18.50;96.20
19232;DHT22;9750;48.730;10.294;2022-07-22T02:50:21;18.50;96.20
19232;DHT22;9750;48.730;10.294;2022-07-22T02:52:49;18.50;96.40
19232;DHT22;9750;48.730;10.294;2022-07-22T02:55:17;18.50;96.40
19232;DHT22;9750;48.730;10.294;2022-07-22T02:57:44;18.50;96.70
19232;DHT22;9750;48.730;10.294;2022-07-22T03:00:12;18.50;97.30
19232;DHT22;9750;48.730;10.294;2022-07-22T03:02:42;18.50;97.40
19232;DHT22;9750;48.730;10.294;2022-07-22T03:05:09;18.50;96.80
19232;DHT22;9750;48.730;10.294;2022-07-22T03:07:38;18.50;96.80
19232;DHT22;9750;48.730;10.294;2022-07-22T03:10:06;18.40;97.50
19232;DHT22;9750;48.730;10.294;2022-07-22T03:12:34;18.40;97.60
19232;DHT22;9750;48.730;10.294;2022-07-22T03:15:01;18.40;97.60
19232;DHT22;9750;48.730;10.294;2022-07-22T03:17:33;18.40;97.60
19232;DHT22;9750;48.730;10.294;2022-07-22T03:20:03;18.30;97.10
19232;DHT22;9750;48.730;10.294;2022-07-22T03:22:31;18.30;97.10
19232;DHT22;9750;48.730;10.294;2022-07-22T03:24:58;18.30;96.60
19232;DHT22;9750;48.730;10.294;2022-07-22T03:27:26;18.30;97.00
19232;DHT22;9750;48.730;10.294;2022-07-22T03:29:54;18.30;97.60
19232;DHT22;9750;48.730;10.294;2022-07-22T03:32:21;18.30;97.80
19232;DHT22;9750;48.730;10.294;2022-07-22T03:34:48;18.20;98.30
19232;DHT22;9750;48.730;10.294;2022-07-22T03:37:17;18.20;98.20
19232;DHT22;9750;48.730;10.294;2022-07-22T03:39:45;18.20;98.30
19232;DHT22;9750;48.730;10.294;2022-07-22T03:42:12;18.20;98.40
19232;DHT22;9750;48.730;10.294;2022-07-22T03:44:39;18.10;99.30
19232;DHT22;9750;48.730;10.294;2022-07-22T03:47:07;18.10;99.30
19232;DHT22;9750;48.730;10.294;2022-07-22T03:49:34;18.10;99.00
19232;DHT22;9750;48.730;10.294;2022-07-22T03:55:17;18.10;98.30
19232;DHT22;9750;48.730;10.294;2022-07-22T03:57:45;18.10;98.90
19232;DHT22;9750;48.730;10.294;2022-07-22T04:00:12;18.10;98.70
19232;DHT22;9750;48.730;10.294;2022-07-22T04:02:40;18.10;99.50
19232;DHT22;9750;48.730;10.294;2022-07-22T04:05:07;18.10;99.40
19232;DHT22;9750;48.730;10.294;2022-07-22T04:07:35;18.10;99.00
19232;DHT22;9750;48.730;10.294;2022-07-22T04:10:02;18.10;98.60
19232;DHT22;9750;48.730;10.294;2022-07-22T04:12:46;18.20;98.70
19232;DHT22;9750;48.730;10.294;2022-07-22T04:15:13;18.20;98.80
19232;DHT22;9750;48.730;10.294;2022-07-22T04:17:41;18.20;98.70
19232;DHT22;9750;48.730;10.294;2022-07-22T04:20:09;18.20;99.30
19232;DHT22;9750;48.730;10.294;2022-07-22T04:22:36;18.20;99.40
19232;DHT22;9750;48.730;10.294;2022-07-22T04:25:04;18.30;99.10
19232;DHT22;9750;48.730;10.294;2022-07-22T04:27:32;18.30;99.20
19232;DHT22;9750;48.730;10.294;2022-07-22T04:30:01;18.30;99.10
19232;DHT22;9750;48.730;10.294;2022-07-22T04:32:28;18.40;98.90
19232;DHT22;9750;48.730;10.294;2022-07-22T04:34:56;18.40;98.70
19232;DHT22;9750;48.730;10.294;2022-07-22T04:37:23;18.40;98.90
19232;DHT22;9750;48.730;10.294;2022-07-22T04:39:50;18.40;99.10
19232;DHT22;9750;48.730;10.294;2022-07-22T04:42:18;18.50;98.80
19232;DHT22;9750;48.730;10.294;2022-07-22T04:44:45;18.50;98.60
19232;DHT22;9750;48.730;10.294;2022-07-22T04:47:14;18.60;98.60
19232;DHT22;9750;48.730;10.294;2022-07-22T04:49:42;18.60;99.00
19232;DHT22;9750;48.730;10.294;2022-07-22T04:52:09;18.60;98.90
19232;DHT22;9750;48.730;10.294;2022-07-22T04:54:36;18.70;99.10
19232;DHT22;9750;48.730;10.294;2022-07-22T04:57:04;18.70;98.60
19232;DHT22;9750;48.730;10.294;2022-07-22T04:59:31;18.70;98.90
19232;DHT22;9750;48.730;10.294;2022-07-22T05:01:58;18.80;98.50
19232;DHT22;9750;48.730;10.294;2022-07-22T05:04:27;18.80;98.70
19232;DHT22;9750;48.730;10.294;2022-07-22T05:06:54;18.80;98.70
19232;DHT22;9750;48.730;10.294;2022-07-22T05:09:22;18.90;98.90
19232;DHT22;9750;48.730;10.294;2022-07-22T05:11:49;18.90;98.80
19232;DHT22;9750;48.730;10.294;2022-07-22T05:14:16;18.90;99.40
19232;DHT22;9750;48.730;10.294;2022-07-22T05:16:44;18.90;99.30
19232;DHT22;9750;48.730;10.294;2022-07-22T05:19:11;19.00;99.90
19232;DHT22;9750;48.730;10.294;2022-07-22T05:21:40;19.00;99.90
19232;DHT22;9750;48.730;10.294;2022-07-22T05:24:08;19.00;99.40
19232;DHT22;9750;48.730;10.294;2022-07-22T05:26:35;19.10;99.70
19232;DHT22;9750;48.730;10.294;2022-07-22T05:29:02;19.10;99.90
19232;DHT22;9750;48.730;10.294;2022-07-22T05:31:30;19.10;99.90
19232;DHT22;9750;48.730;10.294;2022-07-22T05:33:57;19.10;99.90
19232;DHT22;9750;48.730;10.294;2022-07-22T05:36:25;19.20;99.10
19232;DHT22;9750;48.730;10.294;2022-07-22T05:38:53;19.20;99.50
19232;DHT22;9750;48.730;10.294;2022-07-22T05:41:21;19.20;99.10
19232;DHT22;9750;48.730;10.294;2022-07-22T05:43:48;19.30;98.50
19232;DHT22;9750;48.730;10.294;2022-07-22T05:46:16;19.30;98.20
19232;DHT22;9750;48.730;10.294;2022-07-22T05:48:43;19.30;98.00
19232;DHT22;9750;48.730;10.294;2022-07-22T05:51:12;19.40;98.20
19232;DHT22;9750;48.730;10.294;2022-07-22T05:53:40;19.40;98.20
19232;DHT22;9750;48.730;10.294;2022-07-22T05:56:09;19.40;98.60
19232;DHT22;9750;48.730;10.294;2022-07-22T05:58:37;19.40;97.90
19232;DHT22;9750;48.730;10.294;2022-07-22T06:01:05;19.50;98.00
19232;DHT22;9750;48.730;10.294;2022-07-22T06:03:32;19.50;97.80
19232;DHT22;9750;48.730;10.294;2022-07-22T06:06:00;19.60;98.10
19232;DHT22;9750;48.730;10.294;2022-07-22T06:08:27;19.60;97.40
19232;DHT22;9750;48.730;10.294;2022-07-22T06:10:56;19.60;97.20
19232;DHT22;9750;48.730;10.294;2022-07-22T06:13:25;19.70;97.20
19232;DHT22;9750;48.730;10.294;2022-07-22T06:15:53;19.70;97.40
19232;DHT22;9750;48.730;10.294;2022-07-22T06:18:20;19.80;98.20
19232;DHT22;9750;48.730;10.294;2022-07-22T06:20:47;19.80;97.30
19232;DHT22;9750;48.730;10.294;2022-07-22T06:23:15;19.80;97.40
19232;DHT22;9750;48.730;10.294;2022-07-22T06:25:43;19.80;97.20
19232;DHT22;9750;48.730;10.294;2022-07-22T06:28:11;19.90;97.10
19232;DHT22;9750;48.730;10.294;2022-07-22T06:30:40;20.00;97.30
19232;DHT22;9750;48.730;10.294;2022-07-22T06:33:07;20.00;97.50
19232;DHT22;9750;48.730;10.294;2022-07-22T06:35:37;20.10;97.00
19232;DHT22;9750;48.730;10.294;2022-07-22T06:38:05;20.20;96.60
19232;DHT22;9750;48.730;10.294;2022-07-22T06:40:32;20.20;96.80
19232;DHT22;9750;48.730;10.294;2022-07-22T06:43:00;20.20;97.30
19232;DHT22;9750;48.730;10.294;2022-07-22T06:45:27;20.30;97.50
19232;DHT22;9750;48.730;10.294;2022-07-22T06:47:57;20.40;97.50
19232;DHT22;9750;48.730;10.294;2022-07-22T06:50:25;20.40;96.70
19232;DHT22;9750;48.730;10.294;2022-07-22T06:52:53;20.50;96.30
19232;DHT22;9750;48.730;10.294;2022-07-22T06:55:20;20.50;96.90
19232;DHT22;9750;48.730;10.294;2022-07-22T06:57:48;20.60;96.80
19232;DHT22;9750;48.730;10.294;2022-07-22T07:00:16;20.60;95.80
19232;DHT22;9750;48.730;10.294;2022-07-22T07:02:44;20.70;96.00
19232;DHT22;9750;48.730;10.294;2022-07-22T07:05:14;20.70;96.20
19232;DHT22;9750;48.730;10.294;2022-07-22T07:07:42;20.80;96.00
19232;DHT22;9750;48.730;10.294;2022-07-22T07:10:09;20.90;96.10
19232;DHT22;9750;48.730;10.294;2022-07-22T07:12:38;20.90;95.70
19232;DHT22;9750;48.730;10.294;2022-07-22T07:15:06;21.00;95.20
19232;DHT22;9750;48.730;10.294;2022-07-22T07:17:34;21.10;94.80
19232;DHT22;9750;48.730;10.294;2022-07-22T07:20:02;21.10;94.80
19232;DHT22;9750;48.730;10.294;2022-07-22T07:22:31;21.20;94.80
19232;DHT22;9750;48.730;10.294;2022-07-22T07:25:02;21.30;94.50
19232;DHT22;9750;48.730;10.294;2022-07-22T07:27:30;21.30;94.70
19232;DHT22;9750;48.730;10.294;2022-07-22T07:29:57;21.40;94.60
19232;DHT22;9750;48.730;10.294;2022-07-22T07:32:25;21.40;94.30
19232;DHT22;9750;48.730;10.294;2022-07-22T07:34:52;21.50;94.10
19232;DHT22;9750;48.730;10.294;2022-07-22T07:37:20;21.50;94.10
19232;DHT22;9750;48.730;10.294;2022-07-22T07:39:48;21.60;94.10
19232;DHT22;9750;48.730;10.294;2022-07-22T07:42:16;21.70;94.30
19232;DHT22;9750;48.730;10.294;2022-07-22T07:44:43;21.80;94.10
19232;DHT22;9750;48.730;10.294;2022-07-22T07:47:11;21.80;93.60
19232;DHT22;9750;48.730;10.294;2022-07-22T07:49:43;21.90;93.10
19232;DHT22;9750;48.730;10.294;2022-07-22T07:52:11;22.00;93.20
19232;DHT22;9750;48.730;10.294;2022-07-22T07:54:39;22.00;92.50
19232;DHT22;9750;48.730;10.294;2022-07-22T07:57:08;22.10;92.80
19232;DHT22;9750;48.730;10.294;2022-07-22T07:59:36;22.20;92.60
19232;DHT22;9750;48.730;10.294;2022-07-22T08:02:04;22.20;93.00
19232;DHT22;9750;48.730;10.294;2022-07-22T08:04:31;22.30;92.00
19232;DHT22;9750;48.730;10.294;2022-07-22T08:06:59;22.40;91.50
19232;DHT22;9750;48.730;10.294;2022-07-22T08:09:27;22.40;91.00
19232;DHT22;9750;48.730;10.294;2022-07-22T08:15:17;22.50;90.70
19232;DHT22;9750;48.730;10.294;2022-07-22T08:17:44;22.60;91.10
19232;DHT22;9750;48.730;10.294;2022-07-22T08:20:12;22.60;90.10
19232;DHT22;9750;48.730;10.294;2022-07-22T08:22:41;22.70;89.10
19232;DHT22;9750;48.730;10.294;2022-07-22T08:25:09;22.70;87.70
19232;DHT22;9750;48.730;10.294;2022-07-22T08:27:36;22.80;87.40
19232;DHT22;9750;48.730;10.294;2022-07-22T08:30:07;22.90;90.00
19232;DHT22;9750;48.730;10.294;2022-07-22T08:32:36;23.00;89.40
19232;DHT22;9750;48.730;10.294;2022-07-22T08:35:05;23.10;89.60
19232;DHT22;9750;48.730;10.294;2022-07-22T08:37:32;23.10;88.60
19232;DHT22;9750;48.730;10.294;2022-07-22T08:40:00;23.20;89.20
19232;DHT22;9750;48.730;10.294;2022-07-22T08:42:27;23.30;88.60
19232;DHT22;9750;48.730;10.294;2022-07-22T08:44:55;23.30;88.50
19232;DHT22;9750;48.730;10.294;2022-07-22T08:47:23;23.40;86.40
19232;DHT22;9750;48.730;10.294;2022-07-22T08:49:52;23.40;85.90
19232;DHT22;9750;48.730;10.294;2022-07-22T08:52:19;23.50;86.20
19232;DHT22;9750;48.730;10.294;2022-07-22T08:54:47;23.60;87.00
19232;DHT22;9750;48.730;10.294;2022-07-22T08:57:14;23.60;85.40
19232;DHT22;9750;48.730;10.294;2022-07-22T08:59:51;23.70;85.40
19232;DHT22;9750;48.730;10.294;2022-07-22T09:02:20;23.70;85.30
19232;DHT22;9750;48.730;10.294;2022-07-22T09:04:54;23.80;85.60
19232;DHT22;9750;48.730;10.294;2022-07-22T09:07:27;23.90;83.80
19232;DHT22;9750;48.730;10.294;2022-07-22T09:09:55;23.90;83.90
19232;DHT22;9750;48.730;10.294;2022-07-22T09:12:22;24.00;84.20
19232;DHT22;9750;48.730;10.294;2022-07-22T09:14:52;24.00;83.70
19232;DHT22;9750;48.730;10.294;2022-07-22T09:17:26;24.00;83.50
19232;DHT22;9750;48.730;10.294;2022-07-22T09:19:57;24.10;84.40
19232;DHT22;9750;48.730;10.294;2022-07-22T09:22:35;24.10;84.90
19232;DHT22;9750;48.730;10.294;2022-07-22T09:25:22;24.20;83.70
19232;DHT22;9750;48.730;10.294;2022-07-22T09:27:52;24.20;83.30
19232;DHT22;9750;48.730;10.294;2022-07-22T09:30:22;24.20;84.00
19232;DHT22;9750;48.730;10.294;2022-07-22T09:32:50;24.30;85.50
19232;DHT22;9750;48.730;10.294;2022-07-22T09:35:19;24.40;83.80
19232;DHT22;9750;48.730;10.294;2022-07-22T09:37:49;24.50;84.10
19232;DHT22;9750;48.730;10.294;2022-07-22T09:40:18;24.50;85.00
19232;DHT22;9750;48.730;10.294;2022-07-22T09:42:48;24.60;82.30
19232;DHT22;9750;48.730;10.294;2022-07-22T09:45:17;24.70;83.30
19232;DHT22;9750;48.730;10.294;2022-07-22T09:47:45;24.70;82.00
19232;DHT22;9750;48.730;10.294;2022-07-22T09:50:20;24.70;81.20
19232;DHT22;9750;48.730;10.294;2022-07-22T09:52:49;24.80;83.10
19232;DHT22;9750;48.730;10.294;2022-07-22T09:55:19;24.90;83.30
19232;DHT22;9750;48.730;10.294;2022-07-22T09:57:47;24.90;82.20
19232;DHT22;9750;48.730;10.294;2022-07-22T10:00:17;25.00;82.00
19232;DHT22;9750;48.730;10.294;2022-07-22T10:02:49;25.10;81.70
19232;DHT22;9750;48.730;10.294;2022-07-22T10:05:19;25.10;79.90
19232;DHT22;9750;48.730;10.294;2022-07-22T10:07:49;25.10;81.20
19232;DHT22;9750;48.730;10.294;2022-07-22T10:10:18;25.20;80.60
19232;DHT22;9750;48.730;10.294;2022-07-22T10:12:48;25.20;81.40
19232;DHT22;9750;48.730;10.294;2022-07-22T10:15:16;25.30;81.00
19232;DHT22;9750;48.730;10.294;2022-07-22T10:17:45;25.40;81.00
19232;DHT22;9750;48.730;10.294;2022-07-22T10:20:16;25.40;80.00
19232;DHT22;9750;48.730;10.294;2022-07-22T10:22:55;25.50;80.20
19232;DHT22;9750;48.730;10.294;2022-07-22T10:25:24;25.50;79.70
19232;DHT22;9750;48.730;10.294;2022-07-22T10:27:55;25.60;79.60
19232;DHT22;9750;48.730;10.294;2022-07-22T10:30:24;25.60;80.30
19232;DHT22;9750;48.730;10.294;2022-07-22T10:33:07;25.70;76.70
19232;DHT22;9750;48.730;10.294;2022-07-22T10:35:37;25.70;76.70
19232;DHT22;9750;48.730;10.294;2022-07-22T10:38:07;25.70;78.30
19232;DHT22;9750;48.730;10.294;2022-07-22T10:40:54;25.80;77.50
19232;DHT22;9750;48.730;10.294;2022-07-22T10:43:24;25.90;76.80
19232;DHT22;9750;48.730;10.294;2022-07-22T10:45:53;25.90;74.40
19232;DHT22;9750;48.730;10.294;2022-07-22T10:48:24;26.00;73.70
19232;DHT22;9750;48.730;10.294;2022-07-22T10:51:05;26.00;72.60
19232;DHT22;9750;48.730;10.294;2022-07-22T10:53:43;25.90;71.50
19232;DHT22;9750;48.730;10.294;2022-07-22T10:56:23;25.90;71.60
19232;DHT22;9750;48.730;10.294;2022-07-22T10:58:54;25.90;72.40
19232;DHT22;9750;48.730;10.294;2022-07-22T11:01:24;25.90;71.80
19232;DHT22;9750;48.730;10.294;2022-07-22T11:03:52;26.00;72.10
19232;DHT22;9750;48.730;10.294;2022-07-22T11:06:22;26.00;71.90
19232;DHT22;9750;48.730;10.294;2022-07-22T11:08:53;26.00;75.60
19232;DHT22;9750;48.730;10.294;2022-07-22T11:11:39;26.20;74.20
19232;DHT22;9750;48.730;10.294;2022-07-22T11:14:18;26.20;74.00
19232;DHT22;9750;48.730;10.294;2022-07-22T11:16:47;26.30;72.10
19232;DHT22;9750;48.730;10.294;2022-07-22T11:19:19;26.40;71.40
19232;DHT22;9750;48.730;10.294;2022-07-22T11:21:50;26.40;72.80
19232;DHT22;9750;48.730;10.294;2022-07-22T11:24:21;26.50;74.40
19232;DHT22;9750;48.730;10.294;2022-07-22T11:26:50;26.60;72.90
19232;DHT22;9750;48.730;10.294;2022-07-22T11:29:23;26.60;72.70
19232;DHT22;9750;48.730;10.294;2022-07-22T11:31:51;26.60;70.50
19232;DHT22;9750;48.730;10.294;2022-07-22T11:34:19;26.70;71.20
19232;DHT22;9750;48.730;10.294;2022-07-22T11:36:48;26.70;72.10
19232;DHT22;9750;48.730;10.294;2022-07-22T11:39:21;26.80;75.00
19232;DHT22;9750;48.730;10.294;2022-07-22T11:41:48;26.80;71.50
19232;DHT22;9750;48.730;10.294;2022-07-22T11:44:18;26.90;70.00
19232;DHT22;9750;48.730;10.294;2022-07-22T11:46:46;26.90;71.10
19232;DHT22;9750;48.730;10.294;2022-07-22T11:49:15;26.90;71.70
19232;DHT22;9750;48.730;10.294;2022-07-22T11:51:42;27.00;72.50
19232;DHT22;9750;48.730;10.294;2022-07-22T11:54:10;27.10;71.70
19232;DHT22;9750;48.730;10.294;2022-07-22T11:56:39;27.10;71.00
19232;DHT22;9750;48.730;10.294;2022-07-22T11:59:07;27.20;71.20
19232;DHT22;9750;48.730;10.294;2022-07-22T12:01:36;27.20;71.40
19232;DHT22;9750;48.730;10.294;2022-07-22T12:04:05;27.30;70.20
19232;DHT22;9750;48.730;10.294;2022-07-22T12:06:34;27.30;68.50
19232;DHT22;9750;48.730;10.294;2022-07-22T12:09:07;27.40;69.40
19232;DHT22;9750;48.730;10.294;2022-07-22T12:11:38;27.40;67.50
19232;DHT22;9750;48.730;10.294;2022-07-22T12:14:08;27.50;68.90
19232;DHT22;9750;48.730;10.294;2022-07-22T12:16:37;27.50;68.30
19232;DHT22;9750;48.730;10.294;2022-07-22T12:19:07;27.50;68.60
19232;DHT22;9750;48.730;10.294;2022-07-22T12:21:53;27.60;68.80
19232;DHT22;9750;48.730;10.294;2022-07-22T12:24:29;27.60;69.50
19232;DHT22;9750;48.730;10.294;2022-07-22T12:27:00;27.60;69.40
19232;DHT22;9750;48.730;10.294;2022-07-22T12:29:30;27.60;66.90
19232;DHT22;9750;48.730;10.294;2022-07-22T12:32:07;27.70;65.40
19232;DHT22;9750;48.730;10.294;2022-07-22T12:34:37;27.70;67.30
19232;DHT22;9750;48.730;10.294;2022-07-22T12:37:14;27.70;65.10
19232;DHT22;9750;48.730;10.294;2022-07-22T12:39:53;27.70;64.70
19232;DHT22;9750;48.730;10.294;2022-07-22T12:42:23;27.80;67.20
19232;DHT22;9750;48.730;10.294;2022-07-22T12:44:52;27.80;65.50
19232;DHT22;9750;48.730;10.294;2022-07-22T12:47:44;27.90;66.00
19232;DHT22;9750;48.730;10.294;2022-07-22T12:50:20;27.90;64.60
19232;DHT22;9750;48.730;10.294;2022-07-22T12:56:10;27.90;63.80
19232;DHT22;9750;48.730;10.294;2022-07-22T12:58:39;27.90;64.30
19232;DHT22;9750;48.730;10.294;2022-07-22T13:01:07;27.90;65.30
19232;DHT22;9750;48.730;10.294;2022-07-22T13:03:35;28.00;64.80
19232;DHT22;9750;48.730;10.294;2022-07-22T13:06:04;28.00;63.70
19232;DHT22;9750;48.730;10.294;2022-07-22T13:08:33;28.00;61.30
19232;DHT22;9750;48.730;10.294;2022-07-22T13:11:00;28.00;62.20
19232;DHT22;9750;48.730;10.294;2022-07-22T13:13:28;28.10;64.70
19232;DHT22;9750;48.730;10.294;2022-07-22T13:15:57;28.10;60.90
19232;DHT22;9750;48.730;10.294;2022-07-22T13:18:24;28.10;62.90
19232;DHT22;9750;48.730;10.294;2022-07-22T13:20:52;28.20;61.60
19232;DHT22;9750;48.730;10.294;2022-07-22T13:23:19;28.20;60.40
19232;DHT22;9750;48.730;10.294;2022-07-22T13:25:46;28.20;59.10
19232;DHT22;9750;48.730;10.294;2022-07-22T13:28:14;28.20;59.60
19232;DHT22;9750;48.730;10.294;2022-07-22T13:30:41;28.20;59.60
19232;DHT22;9750;48.730;10.294;2022-07-22T13:33:10;28.20;60.00
19232;DHT22;9750;48.730;10.294;2022-07-22T13:35:37;28.30;61.50
19232;DHT22;9750;48.730;10.294;2022-07-22T13:38:05;28.30;62.70
19232;DHT22;9750;48.730;10.294;2022-07-22T13:40:32;28.40;63.70
19232;DHT22;9750;48.730;10.294;2022-07-22T13:42:59;28.40;62.50
19232;DHT22;9750;48.730;10.294;2022-07-22T13:45:27;28.50;61.10
19232;DHT22;9750;48.730;10.294;2022-07-22T13:47:54;28.60;61.30
19232;DHT22;9750;48.730;10.294;2022-07-22T13:50:23;28.70;61.60
19232;DHT22;9750;48.730;10.294;2022-07-22T13:52:50;28.70;59.40
19232;DHT22;9750;48.730;10.294;2022-07-22T13:55:18;28.70;59.60
19232;DHT22;9750;48.730;10.294;2022-07-22T13:57:45;28.80;58.90
19232;DHT22;9750;48.730;10.294;2022-07-22T14:00:14;28.80;59.80
19232;DHT22;9750;48.730;10.294;2022-07-22T14:02:43;28.90;59.80
19232;DHT22;9750;48.730;10.294;2022-07-22T14:05:10;28.90;59.10
19232;DHT22;9750;48.730;10.294;2022-07-22T14:07:39;28.90;58.80
19232;DHT22;9750;48.730;10.294;2022-07-22T14:10:07;28.90;58.30
19232;DHT22;9750;48.730;10.294;2022-07-22T14:12:35;29.00;60.10
19232;DHT22;9750;48.730;10.294;2022-07-22T14:15:02;29.10;58.50
19232;DHT22;9750;48.730;10.294;2022-07-22T14:17:30;29.10;58.70
19232;DHT22;9750;48.730;10.294;2022-07-22T14:19:57;29.20;57.40
19232;DHT22;9750;48.730;10.294;2022-07-22T14:22:25;29.20;58.30
19232;DHT22;9750;48.730;10.294;2022-07-22T14:24:54;29.20;57.30
19232;DHT22;9750;48.730;10.294;2022-07-22T14:27:21;29.30;56.80
19232;DHT22;9750;48.730;10.294;2022-07-22T14:29:48;29.30;58.20
19232;DHT22;9750;48.730;10.294;2022-07-22T14:32:16;29.30;58.60
19232;DHT22;9750;48.730;10.294;2022-07-22T14:34:44;29.40;57.00
19232;DHT22;9750;48.730;10.294;2022-07-22T14:37:12;29.50;57.40
19232;DHT22;9750;48.730;10.294;2022-07-22T14:39:39;29.50;55.30
19232;DHT22;9750;48.730;10.294;2022-07-22T14:42:08;29.50;55.80
19232;DHT22;9750;48.730;10.294;2022-07-22T14:44:36;29.50;55.60
19232;DHT22;9750;48.730;10.294;2022-07-22T14:47:03;29.60;57.50
19232;DHT22;9750;48.730;10.294;2022-07-22T14:49:30;29.70;57.30
19232;DHT22;9750;48.730;10.294;2022-07-22T14:51:58;29.70;57.70
19232;DHT22;9750;48.730;10.294;2022-07-22T14:54:25;29.80;57.40
19232;DHT22;9750;48.730;10.294;2022-07-22T14:56:53;29.80;57.40
19232;DHT22;9750;48.730;10.294;2022-07-22T14:59:22;29.90;56.40
19232;DHT22;9750;48.730;10.294;2022-07-22T15:01:51;29.90;55.30
19232;DHT22;9750;48.730;10.294;2022-07-22T15:04:18;30.00;54.30
19232;DHT22;9750;48.730;10.294;2022-07-22T15:06:46;29.90;53.70
19232;DHT22;9750;48.730;10.294;2022-07-22T15:09:13;29.90;55.30
19232;DHT22;9750;48.730;10.294;2022-07-22T15:11:41;30.00;56.20
19232;DHT22;9750;48.730;10.294;2022-07-22T15:14:08;30.10;55.60
19232;DHT22;9750;48.730;10.294;2022-07-22T15:16:37;30.20;56.00
19232;DHT22;9750;48.730;10.294;2022-07-22T15:19:05;30.20;54.70
19232;DHT22;9750;48.730;10.294;2022-07-22T15:21:32;30.30;55.10
19232;DHT22;9750;48.730;10.294;2022-07-22T15:23:59;30.40;56.00
19232;DHT22;9750;48.730;10.294;2022-07-22T15:26:27;30.40;55.90
19232;DHT22;9750;48.730;10.294;2022-07-22T15:28:54;30.50;53.20
19232;DHT22;9750;48.730;10.294;2022-07-22T15:31:22;30.50;53.90
19232;DHT22;9750;48.730;10.294;2022-07-22T15:33:50;30.50;53.10
19232;DHT22;9750;48.730;10.294;2022-07-22T15:36:18;30.60;52.10
19232;DHT22;9750;48.730;10.294;2022-07-22T15:38:45;30.60;53.70
19232;DHT22;9750;48.730;10.294;2022-07-22T15:41:12;30.60;53.10
19232;DHT22;9750;48.730;10.294;2022-07-22T15:43:40;30.60;50.20
19232;DHT22;9750;48.730;10.294;2022-07-22T15:46:08;30.50;50.40
19232;DHT22;9750;48.730;10.294;2022-07-22T15:48:36;30.40;50.30
19232;DHT22;9750;48.730;10.294;2022-07-22T15:51:06;30.40;51.20